Portada
METAR-TAF:

METAR-TAF

Aeroports :

Kwajalein, Illes Marshall

latitud: 08-43N, longitud: 167-44E, altitud: 3 m

Observació

L'informe es va fer fa 7 minuts, a les 10:20 UTC
Vent 18 kt del Est amb ràfegues de 22 kt
Temperatura 28°C
Humitat 79%
Pressió 1010 hPa
Visibilitat: 16.1 km
Núvols disperses a una alçada de 1700 ft
Núvols disperses a una alçada de 4600 ft
Núvols disperses a una alçada de 6000 ft

METAR: PKWA 051020Z AUTO 08018G22KT 10SM SCT017 SCT046 SCT060 28/24 A2982 RMK AO2 T02770243

Hora: 22:27 (10:27 UTC)

Pronòstic

L'informe es va fer fa 4 hores i 51 minuts, a les 05:36 UTC
Pronòstic vàlid del 05 a les 06 UTC al 06 a les 06 UTC
Vent 15 kt del Est/Nord-Est
Visibilitat: 10 km
Núvols disperses a una alçada de 2000 ft
Núvols disperses a una alçada de 3500 ft

TAF: PKWA 050536Z 0506/0606 07015KT P6SM SCT020 SCT035

Observacions i pronòstics meteorològics de més de 4000 aeroports (METAR i TAF).

Les estacions disponibles són els punts grocs i vermells al mapa.

Posi el ratolí al punt desitjat per veure el nom de l'estació.

Feu clic per veure les observacions i els pronòstics meteorològics.

Per canviar el mapa: feu clic els botons verds amb una creu de color negre per apropar; al botó verd amb un guió per allunyar la imatge; o en les fletxes verdes per a mapes adjacents.


METAR-TAF: